sensor_id;sensor_type;location;lat;lon;timestamp;temperature;humidity
15182;DHT22;7692;50.602;8.692;2024-03-07T00:00:13;7.10;99.90
15182;DHT22;7692;50.602;8.692;2024-03-07T00:02:46;7.10;99.90
15182;DHT22;7692;50.602;8.692;2024-03-07T00:05:16;7.00;99.90
15182;DHT22;7692;50.602;8.692;2024-03-07T00:07:45;7.00;99.90
15182;DHT22;7692;50.602;8.692;2024-03-07T00:10:13;7.00;99.90
15182;DHT22;7692;50.602;8.692;2024-03-07T00:12:42;7.00;99.90
15182;DHT22;7692;50.602;8.692;2024-03-07T00:15:13;7.00;99.90
15182;DHT22;7692;50.602;8.692;2024-03-07T00:17:41;6.90;99.90
15182;DHT22;7692;50.602;8.692;2024-03-07T00:20:10;6.90;99.90
15182;DHT22;7692;50.602;8.692;2024-03-07T00:22:42;6.90;99.90
15182;DHT22;7692;50.602;8.692;2024-03-07T00:25:10;6.90;99.90
15182;DHT22;7692;50.602;8.692;2024-03-07T00:27:41;6.90;99.90
15182;DHT22;7692;50.602;8.692;2024-03-07T00:30:14;6.90;99.90
15182;DHT22;7692;50.602;8.692;2024-03-07T00:32:45;6.80;99.90
15182;DHT22;7692;50.602;8.692;2024-03-07T00:35:14;6.80;99.90
15182;DHT22;7692;50.602;8.692;2024-03-07T00:37:43;6.80;99.90
15182;DHT22;7692;50.602;8.692;2024-03-07T00:40:16;6.80;99.90
15182;DHT22;7692;50.602;8.692;2024-03-07T00:42:44;6.80;99.90
15182;DHT22;7692;50.602;8.692;2024-03-07T00:45:15;6.80;99.90
15182;DHT22;7692;50.602;8.692;2024-03-07T00:47:43;6.70;99.90
15182;DHT22;7692;50.602;8.692;2024-03-07T00:50:11;6.70;99.90
15182;DHT22;7692;50.602;8.692;2024-03-07T00:52:39;6.70;99.90
15182;DHT22;7692;50.602;8.692;2024-03-07T00:55:08;6.60;99.90
15182;DHT22;7692;50.602;8.692;2024-03-07T00:57:36;6.60;99.90
15182;DHT22;7692;50.602;8.692;2024-03-07T01:00:05;6.50;99.90
15182;DHT22;7692;50.602;8.692;2024-03-07T01:05:10;6.40;99.90
15182;DHT22;7692;50.602;8.692;2024-03-07T01:07:44;6.30;99.90
15182;DHT22;7692;50.602;8.692;2024-03-07T01:12:41;6.20;99.90
15182;DHT22;7692;50.602;8.692;2024-03-07T01:15:11;6.10;99.90
15182;DHT22;7692;50.602;8.692;2024-03-07T01:20:10;5.90;99.90
15182;DHT22;7692;50.602;8.692;2024-03-07T01:22:39;5.90;99.90
15182;DHT22;7692;50.602;8.692;2024-03-07T01:25:07;5.80;99.90
15182;DHT22;7692;50.602;8.692;2024-03-07T01:27:35;5.80;99.90
15182;DHT22;7692;50.602;8.692;2024-03-07T01:30:03;5.80;99.90
15182;DHT22;7692;50.602;8.692;2024-03-07T01:32:34;5.70;99.90
15182;DHT22;7692;50.602;8.692;2024-03-07T01:35:05;5.70;99.90
15182;DHT22;7692;50.602;8.692;2024-03-07T01:37:35;5.70;99.90
15182;DHT22;7692;50.602;8.692;2024-03-07T01:40:04;5.60;99.90
15182;DHT22;7692;50.602;8.692;2024-03-07T01:42:33;5.50;99.90
15182;DHT22;7692;50.602;8.692;2024-03-07T01:45:02;5.40;99.90
15182;DHT22;7692;50.602;8.692;2024-03-07T01:47:30;5.40;99.90
15182;DHT22;7692;50.602;8.692;2024-03-07T01:49:58;5.40;99.90
15182;DHT22;7692;50.602;8.692;2024-03-07T01:52:28;5.30;99.90
15182;DHT22;7692;50.602;8.692;2024-03-07T01:54:57;5.30;99.90
15182;DHT22;7692;50.602;8.692;2024-03-07T01:57:25;5.20;99.90
15182;DHT22;7692;50.602;8.692;2024-03-07T01:59:55;5.20;99.90
15182;DHT22;7692;50.602;8.692;2024-03-07T02:02:24;5.20;99.90
15182;DHT22;7692;50.602;8.692;2024-03-07T02:04:52;5.20;99.90
15182;DHT22;7692;50.602;8.692;2024-03-07T02:07:20;5.20;99.90
15182;DHT22;7692;50.602;8.692;2024-03-07T02:09:49;5.20;99.90
15182;DHT22;7692;50.602;8.692;2024-03-07T02:12:17;5.30;99.90
15182;DHT22;7692;50.602;8.692;2024-03-07T02:14:45;5.30;99.90
15182;DHT22;7692;50.602;8.692;2024-03-07T02:17:14;5.30;99.90
15182;DHT22;7692;50.602;8.692;2024-03-07T02:19:42;5.30;99.90
15182;DHT22;7692;50.602;8.692;2024-03-07T02:22:11;5.30;99.90
15182;DHT22;7692;50.602;8.692;2024-03-07T02:24:42;5.40;99.90
15182;DHT22;7692;50.602;8.692;2024-03-07T02:27:11;5.40;99.90
15182;DHT22;7692;50.602;8.692;2024-03-07T02:29:41;5.40;99.90
15182;DHT22;7692;50.602;8.692;2024-03-07T02:32:09;5.40;99.90
15182;DHT22;7692;50.602;8.692;2024-03-07T02:34:38;5.40;99.90
15182;DHT22;7692;50.602;8.692;2024-03-07T02:37:06;5.40;99.90
15182;DHT22;7692;50.602;8.692;2024-03-07T02:39:37;5.40;99.90
15182;DHT22;7692;50.602;8.692;2024-03-07T02:42:05;5.40;99.90
15182;DHT22;7692;50.602;8.692;2024-03-07T02:44:33;5.40;99.90
15182;DHT22;7692;50.602;8.692;2024-03-07T02:47:01;5.40;99.90
15182;DHT22;7692;50.602;8.692;2024-03-07T02:49:30;5.40;99.90
15182;DHT22;7692;50.602;8.692;2024-03-07T02:51:58;5.30;99.90
15182;DHT22;7692;50.602;8.692;2024-03-07T02:54:27;5.30;99.90
15182;DHT22;7692;50.602;8.692;2024-03-07T02:56:56;5.30;99.90
15182;DHT22;7692;50.602;8.692;2024-03-07T02:59:24;5.30;99.90
15182;DHT22;7692;50.602;8.692;2024-03-07T03:01:52;5.30;99.90
15182;DHT22;7692;50.602;8.692;2024-03-07T03:04:21;5.30;99.90
15182;DHT22;7692;50.602;8.692;2024-03-07T03:06:49;5.30;99.90
15182;DHT22;7692;50.602;8.692;2024-03-07T03:09:17;5.30;99.90
15182;DHT22;7692;50.602;8.692;2024-03-07T03:11:45;5.30;99.90
15182;DHT22;7692;50.602;8.692;2024-03-07T03:14:15;5.30;99.90
15182;DHT22;7692;50.602;8.692;2024-03-07T03:16:43;5.30;99.90
15182;DHT22;7692;50.602;8.692;2024-03-07T03:19:14;5.20;99.90
15182;DHT22;7692;50.602;8.692;2024-03-07T03:21:42;5.20;99.90
15182;DHT22;7692;50.602;8.692;2024-03-07T03:24:10;5.20;99.90
15182;DHT22;7692;50.602;8.692;2024-03-07T03:26:38;5.20;99.90
15182;DHT22;7692;50.602;8.692;2024-03-07T03:29:07;5.20;99.90
15182;DHT22;7692;50.602;8.692;2024-03-07T03:31:37;5.20;99.90
15182;DHT22;7692;50.602;8.692;2024-03-07T03:34:05;5.20;99.90
15182;DHT22;7692;50.602;8.692;2024-03-07T03:36:33;5.20;99.90
15182;DHT22;7692;50.602;8.692;2024-03-07T03:39:01;5.10;99.90
15182;DHT22;7692;50.602;8.692;2024-03-07T03:41:29;5.10;99.90
15182;DHT22;7692;50.602;8.692;2024-03-07T03:43:57;5.10;99.90
15182;DHT22;7692;50.602;8.692;2024-03-07T03:46:25;5.10;99.90
15182;DHT22;7692;50.602;8.692;2024-03-07T03:48:54;5.00;99.90
15182;DHT22;7692;50.602;8.692;2024-03-07T03:51:22;5.00;99.90
15182;DHT22;7692;50.602;8.692;2024-03-07T03:53:51;5.00;99.90
15182;DHT22;7692;50.602;8.692;2024-03-07T03:58:48;4.80;99.90
15182;DHT22;7692;50.602;8.692;2024-03-07T04:01:16;4.80;99.90
15182;DHT22;7692;50.602;8.692;2024-03-07T06:53:07;4.40;99.90
15182;DHT22;7692;50.602;8.692;2024-03-07T06:55:36;4.40;99.90
15182;DHT22;7692;50.602;8.692;2024-03-07T06:58:04;4.50;99.90
15182;DHT22;7692;50.602;8.692;2024-03-07T07:00:33;4.50;99.90
15182;DHT22;7692;50.602;8.692;2024-03-07T07:03:07;4.60;99.90
15182;DHT22;7692;50.602;8.692;2024-03-07T07:05:37;4.60;99.90
15182;DHT22;7692;50.602;8.692;2024-03-07T07:08:07;4.70;99.90
15182;DHT22;7692;50.602;8.692;2024-03-07T07:10:35;4.80;99.90
15182;DHT22;7692;50.602;8.692;2024-03-07T07:13:03;4.80;99.90
15182;DHT22;7692;50.602;8.692;2024-03-07T07:15:32;4.90;99.90
15182;DHT22;7692;50.602;8.692;2024-03-07T07:18:01;5.00;99.90
15182;DHT22;7692;50.602;8.692;2024-03-07T07:20:30;5.00;99.90
15182;DHT22;7692;50.602;8.692;2024-03-07T07:22:59;5.20;99.90
15182;DHT22;7692;50.602;8.692;2024-03-07T07:25:30;5.30;99.90
15182;DHT22;7692;50.602;8.692;2024-03-07T07:27:58;5.30;99.90
15182;DHT22;7692;50.602;8.692;2024-03-07T07:30:26;5.40;99.90
15182;DHT22;7692;50.602;8.692;2024-03-07T07:32:54;5.50;99.90
15182;DHT22;7692;50.602;8.692;2024-03-07T07:35:23;5.50;99.90
15182;DHT22;7692;50.602;8.692;2024-03-07T07:37:51;5.50;99.90
15182;DHT22;7692;50.602;8.692;2024-03-07T07:40:23;5.50;99.90
15182;DHT22;7692;50.602;8.692;2024-03-07T07:42:55;5.50;99.90
15182;DHT22;7692;50.602;8.692;2024-03-07T07:45:24;5.60;99.90
15182;DHT22;7692;50.602;8.692;2024-03-07T07:47:53;5.60;99.90
15182;DHT22;7692;50.602;8.692;2024-03-07T07:50:24;5.60;99.90
15182;DHT22;7692;50.602;8.692;2024-03-07T07:52:54;5.60;99.90
15182;DHT22;7692;50.602;8.692;2024-03-07T07:55:23;5.60;99.90
15182;DHT22;7692;50.602;8.692;2024-03-07T07:57:55;5.60;99.90
15182;DHT22;7692;50.602;8.692;2024-03-07T08:00:24;5.60;99.90
15182;DHT22;7692;50.602;8.692;2024-03-07T08:02:54;5.60;99.90
15182;DHT22;7692;50.602;8.692;2024-03-07T08:05:24;5.60;99.90
15182;DHT22;7692;50.602;8.692;2024-03-07T08:07:54;5.60;99.90
15182;DHT22;7692;50.602;8.692;2024-03-07T08:10:24;5.60;99.90
15182;DHT22;7692;50.602;8.692;2024-03-07T08:12:57;5.50;99.90
15182;DHT22;7692;50.602;8.692;2024-03-07T08:15:26;5.50;99.90
15182;DHT22;7692;50.602;8.692;2024-03-07T08:17:56;5.50;99.90
15182;DHT22;7692;50.602;8.692;2024-03-07T08:20:25;5.50;99.90
15182;DHT22;7692;50.602;8.692;2024-03-07T08:22:54;5.50;99.90
15182;DHT22;7692;50.602;8.692;2024-03-07T08:25:25;5.50;99.90
15182;DHT22;7692;50.602;8.692;2024-03-07T08:27:55;5.50;99.90
15182;DHT22;7692;50.602;8.692;2024-03-07T08:30:26;5.50;99.90
15182;DHT22;7692;50.602;8.692;2024-03-07T08:32:57;5.50;99.90
15182;DHT22;7692;50.602;8.692;2024-03-07T08:35:29;5.60;99.90
15182;DHT22;7692;50.602;8.692;2024-03-07T08:37:57;5.60;99.90
15182;DHT22;7692;50.602;8.692;2024-03-07T08:40:26;5.60;99.90
15182;DHT22;7692;50.602;8.692;2024-03-07T08:42:59;5.60;99.90
15182;DHT22;7692;50.602;8.692;2024-03-07T08:45:28;5.70;99.90
15182;DHT22;7692;50.602;8.692;2024-03-07T08:48:01;5.70;99.90
15182;DHT22;7692;50.602;8.692;2024-03-07T08:50:31;5.70;99.90
15182;DHT22;7692;50.602;8.692;2024-03-07T08:53:01;5.70;99.90
15182;DHT22;7692;50.602;8.692;2024-03-07T08:55:29;5.70;99.90
15182;DHT22;7692;50.602;8.692;2024-03-07T08:57:57;5.70;99.90
15182;DHT22;7692;50.602;8.692;2024-03-07T09:00:25;5.80;99.90
15182;DHT22;7692;50.602;8.692;2024-03-07T09:02:56;5.80;99.90
15182;DHT22;7692;50.602;8.692;2024-03-07T09:05:28;5.80;99.90
15182;DHT22;7692;50.602;8.692;2024-03-07T09:07:58;5.90;99.90
15182;DHT22;7692;50.602;8.692;2024-03-07T09:10:26;5.90;99.90
15182;DHT22;7692;50.602;8.692;2024-03-07T09:12:57;5.90;99.90
15182;DHT22;7692;50.602;8.692;2024-03-07T09:15:26;6.00;99.90
15182;DHT22;7692;50.602;8.692;2024-03-07T09:17:56;6.00;99.90
15182;DHT22;7692;50.602;8.692;2024-03-07T09:20:25;6.10;99.90
15182;DHT22;7692;50.602;8.692;2024-03-07T09:22:54;6.10;99.90
15182;DHT22;7692;50.602;8.692;2024-03-07T09:25:23;6.20;99.90
15182;DHT22;7692;50.602;8.692;2024-03-07T09:27:52;6.30;99.90
15182;DHT22;7692;50.602;8.692;2024-03-07T09:30:21;6.40;99.90
15182;DHT22;7692;50.602;8.692;2024-03-07T09:32:53;6.40;99.90
15182;DHT22;7692;50.602;8.692;2024-03-07T09:35:23;6.50;99.90
15182;DHT22;7692;50.602;8.692;2024-03-07T09:37:52;6.60;99.90
15182;DHT22;7692;50.602;8.692;2024-03-07T09:40:22;6.60;99.90
15182;DHT22;7692;50.602;8.692;2024-03-07T09:42:54;6.70;99.90
15182;DHT22;7692;50.602;8.692;2024-03-07T09:45:29;6.70;99.90
15182;DHT22;7692;50.602;8.692;2024-03-07T09:47:59;6.80;99.90
15182;DHT22;7692;50.602;8.692;2024-03-07T09:50:31;7.00;99.90
15182;DHT22;7692;50.602;8.692;2024-03-07T09:53:00;7.40;99.90
15182;DHT22;7692;50.602;8.692;2024-03-07T09:55:30;7.60;99.90
15182;DHT22;7692;50.602;8.692;2024-03-07T09:58:00;7.70;99.90
15182;DHT22;7692;50.602;8.692;2024-03-07T10:00:30;7.80;99.90
15182;DHT22;7692;50.602;8.692;2024-03-07T10:03:05;8.00;99.90
15182;DHT22;7692;50.602;8.692;2024-03-07T10:05:35;8.10;99.90
15182;DHT22;7692;50.602;8.692;2024-03-07T10:08:05;8.10;99.90
15182;DHT22;7692;50.602;8.692;2024-03-07T10:10:35;8.10;99.90
15182;DHT22;7692;50.602;8.692;2024-03-07T10:13:03;8.10;99.90
15182;DHT22;7692;50.602;8.692;2024-03-07T10:15:33;8.20;99.90
15182;DHT22;7692;50.602;8.692;2024-03-07T10:18:01;8.20;99.90
15182;DHT22;7692;50.602;8.692;2024-03-07T10:20:30;8.30;99.90
15182;DHT22;7692;50.602;8.692;2024-03-07T10:23:00;8.30;99.90
15182;DHT22;7692;50.602;8.692;2024-03-07T10:25:28;8.30;99.90
15182;DHT22;7692;50.602;8.692;2024-03-07T10:27:57;8.30;99.90
15182;DHT22;7692;50.602;8.692;2024-03-07T10:30:27;8.30;99.90
15182;DHT22;7692;50.602;8.692;2024-03-07T10:32:56;8.40;99.90
15182;DHT22;7692;50.602;8.692;2024-03-07T10:35:27;8.50;99.90
15182;DHT22;7692;50.602;8.692;2024-03-07T10:37:59;8.50;99.90
15182;DHT22;7692;50.602;8.692;2024-03-07T10:40:33;8.60;99.90
15182;DHT22;7692;50.602;8.692;2024-03-07T10:43:07;8.60;99.90
15182;DHT22;7692;50.602;8.692;2024-03-07T10:45:44;8.50;99.90
15182;DHT22;7692;50.602;8.692;2024-03-07T10:48:14;8.40;99.90
15182;DHT22;7692;50.602;8.692;2024-03-07T10:50:54;8.30;99.90
15182;DHT22;7692;50.602;8.692;2024-03-07T10:53:31;8.30;99.90
15182;DHT22;7692;50.602;8.692;2024-03-07T10:56:12;8.20;99.90
15182;DHT22;7692;50.602;8.692;2024-03-07T10:58:57;8.10;99.90
15182;DHT22;7692;50.602;8.692;2024-03-07T11:01:30;8.10;99.90
15182;DHT22;7692;50.602;8.692;2024-03-07T11:04:00;8.00;99.90
15182;DHT22;7692;50.602;8.692;2024-03-07T11:06:31;7.90;99.90
15182;DHT22;7692;50.602;8.692;2024-03-07T11:09:03;7.80;99.90
15182;DHT22;7692;50.602;8.692;2024-03-07T11:11:38;7.70;99.90
15182;DHT22;7692;50.602;8.692;2024-03-07T11:14:08;7.70;99.90
15182;DHT22;7692;50.602;8.692;2024-03-07T11:16:38;7.60;99.90
15182;DHT22;7692;50.602;8.692;2024-03-07T11:19:26;7.60;99.90
15182;DHT22;7692;50.602;8.692;2024-03-07T11:21:55;7.60;99.90
15182;DHT22;7692;50.602;8.692;2024-03-07T11:24:29;7.60;99.90
15182;DHT22;7692;50.602;8.692;2024-03-07T11:27:02;7.60;99.90
15182;DHT22;7692;50.602;8.692;2024-03-07T11:29:42;7.50;99.90
15182;DHT22;7692;50.602;8.692;2024-03-07T11:32:11;7.60;99.90
15182;DHT22;7692;50.602;8.692;2024-03-07T11:34:40;7.60;99.90
15182;DHT22;7692;50.602;8.692;2024-03-07T11:37:17;7.60;99.90
15182;DHT22;7692;50.602;8.692;2024-03-07T11:39:58;7.70;99.90
15182;DHT22;7692;50.602;8.692;2024-03-07T11:42:34;7.70;99.90
15182;DHT22;7692;50.602;8.692;2024-03-07T11:45:04;7.80;99.90
15182;DHT22;7692;50.602;8.692;2024-03-07T11:47:35;7.80;99.90
15182;DHT22;7692;50.602;8.692;2024-03-07T11:50:06;7.90;99.90
15182;DHT22;7692;50.602;8.692;2024-03-07T11:52:38;8.00;99.90
15182;DHT22;7692;50.602;8.692;2024-03-07T11:55:10;8.00;99.90
15182;DHT22;7692;50.602;8.692;2024-03-07T11:57:39;8.10;99.90
15182;DHT22;7692;50.602;8.692;2024-03-07T12:00:11;8.10;99.90
15182;DHT22;7692;50.602;8.692;2024-03-07T12:02:40;8.20;99.90
15182;DHT22;7692;50.602;8.692;2024-03-07T12:05:10;8.20;99.90
15182;DHT22;7692;50.602;8.692;2024-03-07T12:07:43;8.30;99.90
15182;DHT22;7692;50.602;8.692;2024-03-07T12:10:15;8.30;99.90
15182;DHT22;7692;50.602;8.692;2024-03-07T12:12:51;8.40;99.90
15182;DHT22;7692;50.602;8.692;2024-03-07T12:15:19;8.60;99.90
15182;DHT22;7692;50.602;8.692;2024-03-07T12:17:50;8.70;99.90
15182;DHT22;7692;50.602;8.692;2024-03-07T12:20:19;8.90;99.90
15182;DHT22;7692;50.602;8.692;2024-03-07T12:22:58;9.00;99.90
15182;DHT22;7692;50.602;8.692;2024-03-07T12:25:30;9.10;99.90
15182;DHT22;7692;50.602;8.692;2024-03-07T12:28:06;9.00;99.90
15182;DHT22;7692;50.602;8.692;2024-03-07T12:30:48;8.90;99.90
15182;DHT22;7692;50.602;8.692;2024-03-07T12:33:18;8.90;99.90
15182;DHT22;7692;50.602;8.692;2024-03-07T12:35:47;8.80;99.90
15182;DHT22;7692;50.602;8.692;2024-03-07T12:38:17;8.80;99.90
15182;DHT22;7692;50.602;8.692;2024-03-07T12:41:01;8.90;99.90
15182;DHT22;7692;50.602;8.692;2024-03-07T12:43:33;9.10;99.90
15182;DHT22;7692;50.602;8.692;2024-03-07T12:46:01;9.20;99.90
15182;DHT22;7692;50.602;8.692;2024-03-07T12:48:31;9.40;99.90
15182;DHT22;7692;50.602;8.692;2024-03-07T12:51:00;9.60;99.90
15182;DHT22;7692;50.602;8.692;2024-03-07T12:53:29;9.80;99.90
15182;DHT22;7692;50.602;8.692;2024-03-07T12:56:03;10.00;99.90
15182;DHT22;7692;50.602;8.692;2024-03-07T12:58:31;10.10;99.90
15182;DHT22;7692;50.602;8.692;2024-03-07T13:00:59;10.20;99.90
15182;DHT22;7692;50.602;8.692;2024-03-07T13:03:28;10.20;99.90
15182;DHT22;7692;50.602;8.692;2024-03-07T13:05:57;10.20;99.90
15182;DHT22;7692;50.602;8.692;2024-03-07T13:08:28;10.10;99.90
15182;DHT22;7692;50.602;8.692;2024-03-07T13:10:57;10.00;99.90
15182;DHT22;7692;50.602;8.692;2024-03-07T13:13:29;9.90;99.90
15182;DHT22;7692;50.602;8.692;2024-03-07T13:15:58;9.80;99.90
15182;DHT22;7692;50.602;8.692;2024-03-07T13:18:26;9.80;99.90
15182;DHT22;7692;50.602;8.692;2024-03-07T13:20:55;9.70;99.90
15182;DHT22;7692;50.602;8.692;2024-03-07T13:23:23;9.60;99.90
15182;DHT22;7692;50.602;8.692;2024-03-07T13:25:55;9.60;99.90
15182;DHT22;7692;50.602;8.692;2024-03-07T13:28:23;9.60;99.90
15182;DHT22;7692;50.602;8.692;2024-03-07T13:30:54;9.50;99.90
15182;DHT22;7692;50.602;8.692;2024-03-07T13:33:22;9.60;99.90
15182;DHT22;7692;50.602;8.692;2024-03-07T13:35:52;9.50;99.90
15182;DHT22;7692;50.602;8.692;2024-03-07T13:38:20;9.60;99.90
15182;DHT22;7692;50.602;8.692;2024-03-07T13:40:48;9.60;99.90
15182;DHT22;7692;50.602;8.692;2024-03-07T13:43:17;9.70;99.90
15182;DHT22;7692;50.602;8.692;2024-03-07T13:45:45;9.70;99.90
15182;DHT22;7692;50.602;8.692;2024-03-07T13:48:16;9.80;99.90
15182;DHT22;7692;50.602;8.692;2024-03-07T13:50:45;9.80;99.90
15182;DHT22;7692;50.602;8.692;2024-03-07T13:53:26;9.90;99.90
15182;DHT22;7692;50.602;8.692;2024-03-07T13:56:23;10.00;99.90
15182;DHT22;7692;50.602;8.692;2024-03-07T13:59:16;10.10;99.90
15182;DHT22;7692;50.602;8.692;2024-03-07T14:01:55;10.30;99.90
15182;DHT22;7692;50.602;8.692;2024-03-07T14:04:45;10.40;99.90
15182;DHT22;7692;50.602;8.692;2024-03-07T14:07:30;10.50;99.90
15182;DHT22;7692;50.602;8.692;2024-03-07T14:10:25;10.60;99.90
15182;DHT22;7692;50.602;8.692;2024-03-07T14:13:13;10.70;99.90
15182;DHT22;7692;50.602;8.692;2024-03-07T14:16:13;10.80;99.90
15182;DHT22;7692;50.602;8.692;2024-03-07T14:19:28;10.70;99.90
15182;DHT22;7692;50.602;8.692;2024-03-07T14:22:18;10.80;99.90
15182;DHT22;7692;50.602;8.692;2024-03-07T14:25:11;10.90;99.90
15182;DHT22;7692;50.602;8.692;2024-03-07T14:27:55;11.10;99.90
15182;DHT22;7692;50.602;8.692;2024-03-07T14:30:38;11.30;99.90
15182;DHT22;7692;50.602;8.692;2024-03-07T14:33:13;11.50;99.90
15182;DHT22;7692;50.602;8.692;2024-03-07T14:35:59;11.70;99.90
15182;DHT22;7692;50.602;8.692;2024-03-07T14:38:45;11.80;99.90
15182;DHT22;7692;50.602;8.692;2024-03-07T14:41:18;11.90;99.90
15182;DHT22;7692;50.602;8.692;2024-03-07T14:43:50;12.10;99.90
15182;DHT22;7692;50.602;8.692;2024-03-07T14:46:19;12.30;99.90
15182;DHT22;7692;50.602;8.692;2024-03-07T14:48:47;12.40;99.90
15182;DHT22;7692;50.602;8.692;2024-03-07T14:51:15;12.30;99.90
15182;DHT22;7692;50.602;8.692;2024-03-07T14:53:45;12.00;99.90
15182;DHT22;7692;50.602;8.692;2024-03-07T14:56:13;11.90;99.90
15182;DHT22;7692;50.602;8.692;2024-03-07T14:58:42;11.60;99.90
15182;DHT22;7692;50.602;8.692;2024-03-07T15:01:10;11.30;99.90
15182;DHT22;7692;50.602;8.692;2024-03-07T15:03:39;11.10;99.90
15182;DHT22;7692;50.602;8.692;2024-03-07T15:06:12;10.80;99.90
15182;DHT22;7692;50.602;8.692;2024-03-07T15:08:41;10.50;99.90
15182;DHT22;7692;50.602;8.692;2024-03-07T15:11:17;10.30;99.90
15182;DHT22;7692;50.602;8.692;2024-03-07T15:13:47;10.00;99.90
15182;DHT22;7692;50.602;8.692;2024-03-07T15:16:15;9.80;99.90
15182;DHT22;7692;50.602;8.692;2024-03-07T15:18:59;9.70;99.90
15182;DHT22;7692;50.602;8.692;2024-03-07T15:21:27;9.60;99.90
15182;DHT22;7692;50.602;8.692;2024-03-07T15:23:56;9.60;99.90
15182;DHT22;7692;50.602;8.692;2024-03-07T15:26:25;9.50;99.90
15182;DHT22;7692;50.602;8.692;2024-03-07T15:28:54;9.40;99.90
15182;DHT22;7692;50.602;8.692;2024-03-07T15:31:22;9.30;99.90
15182;DHT22;7692;50.602;8.692;2024-03-07T15:33:51;9.30;99.90
15182;DHT22;7692;50.602;8.692;2024-03-07T15:36:19;9.50;99.90
15182;DHT22;7692;50.602;8.692;2024-03-07T15:38:49;9.70;99.90
15182;DHT22;7692;50.602;8.692;2024-03-07T15:41:17;9.70;99.90
15182;DHT22;7692;50.602;8.692;2024-03-07T15:43:48;9.60;99.90
15182;DHT22;7692;50.602;8.692;2024-03-07T15:46:16;9.40;99.90
15182;DHT22;7692;50.602;8.692;2024-03-07T15:48:45;9.30;99.90
15182;DHT22;7692;50.602;8.692;2024-03-07T15:51:16;9.20;99.90
15182;DHT22;7692;50.602;8.692;2024-03-07T15:53:44;9.10;99.90
15182;DHT22;7692;50.602;8.692;2024-03-07T15:56:12;9.00;99.90
15182;DHT22;7692;50.602;8.692;2024-03-07T15:58:43;8.90;99.90
15182;DHT22;7692;50.602;8.692;2024-03-07T16:01:13;8.80;99.90
15182;DHT22;7692;50.602;8.692;2024-03-07T16:03:43;8.80;99.90
15182;DHT22;7692;50.602;8.692;2024-03-07T16:06:13;8.70;99.90
15182;DHT22;7692;50.602;8.692;2024-03-07T16:08:44;8.60;99.90
15182;DHT22;7692;50.602;8.692;2024-03-07T16:11:12;8.50;99.90
15182;DHT22;7692;50.602;8.692;2024-03-07T16:13:40;8.40;99.90
15182;DHT22;7692;50.602;8.692;2024-03-07T16:16:08;8.40;99.90
15182;DHT22;7692;50.602;8.692;2024-03-07T16:18:37;8.30;99.90
15182;DHT22;7692;50.602;8.692;2024-03-07T16:21:06;8.20;99.90
15182;DHT22;7692;50.602;8.692;2024-03-07T16:23:34;8.20;99.90
15182;DHT22;7692;50.602;8.692;2024-03-07T16:26:02;8.10;99.90
15182;DHT22;7692;50.602;8.692;2024-03-07T16:28:32;8.00;99.90
15182;DHT22;7692;50.602;8.692;2024-03-07T16:31:00;7.90;99.90
15182;DHT22;7692;50.602;8.692;2024-03-07T16:33:33;7.80;99.90
15182;DHT22;7692;50.602;8.692;2024-03-07T16:36:03;7.70;99.90
15182;DHT22;7692;50.602;8.692;2024-03-07T16:38:32;7.70;99.90
15182;DHT22;7692;50.602;8.692;2024-03-07T16:41:01;7.60;99.90
15182;DHT22;7692;50.602;8.692;2024-03-07T16:43:29;7.50;99.90
15182;DHT22;7692;50.602;8.692;2024-03-07T16:45:57;7.40;99.90
15182;DHT22;7692;50.602;8.692;2024-03-07T16:48:25;7.40;99.90
15182;DHT22;7692;50.602;8.692;2024-03-07T16:50:55;7.30;99.90
15182;DHT22;7692;50.602;8.692;2024-03-07T16:53:25;7.20;99.90
15182;DHT22;7692;50.602;8.692;2024-03-07T16:56:00;7.10;99.90
15182;DHT22;7692;50.602;8.692;2024-03-07T17:01:03;7.00;99.90
15182;DHT22;7692;50.602;8.692;2024-03-07T17:03:32;6.80;99.90
15182;DHT22;7692;50.602;8.692;2024-03-07T17:06:00;6.80;99.90
15182;DHT22;7692;50.602;8.692;2024-03-07T17:08:32;6.70;99.90
15182;DHT22;7692;50.602;8.692;2024-03-07T17:11:00;6.60;99.90
15182;DHT22;7692;50.602;8.692;2024-03-07T17:13:29;6.60;99.90
15182;DHT22;7692;50.602;8.692;2024-03-07T17:15:57;6.50;99.90
15182;DHT22;7692;50.602;8.692;2024-03-07T17:18:25;6.40;99.90
15182;DHT22;7692;50.602;8.692;2024-03-07T17:20:54;6.30;99.90
15182;DHT22;7692;50.602;8.692;2024-03-07T17:23:23;6.30;99.90
15182;DHT22;7692;50.602;8.692;2024-03-07T17:25:54;6.20;99.90
15182;DHT22;7692;50.602;8.692;2024-03-07T17:28:22;6.10;99.90
15182;DHT22;7692;50.602;8.692;2024-03-07T17:33:22;6.00;99.90
15182;DHT22;7692;50.602;8.692;2024-03-07T17:35:53;6.00;99.90
15182;DHT22;7692;50.602;8.692;2024-03-07T17:38:23;5.90;99.90
15182;DHT22;7692;50.602;8.692;2024-03-07T17:40:55;5.90;99.90
15182;DHT22;7692;50.602;8.692;2024-03-07T17:43:23;5.90;99.90
15182;DHT22;7692;50.602;8.692;2024-03-07T17:45:52;5.80;99.90
15182;DHT22;7692;50.602;8.692;2024-03-07T17:48:20;5.80;99.90
15182;DHT22;7692;50.602;8.692;2024-03-07T17:50:48;5.80;99.90
15182;DHT22;7692;50.602;8.692;2024-03-07T17:53:16;5.80;99.90
15182;DHT22;7692;50.602;8.692;2024-03-07T17:55:46;5.80;99.90
15182;DHT22;7692;50.602;8.692;2024-03-07T17:58:16;5.70;99.90
15182;DHT22;7692;50.602;8.692;2024-03-07T18:00:46;5.70;99.90
15182;DHT22;7692;50.602;8.692;2024-03-07T18:03:16;5.70;99.90
15182;DHT22;7692;50.602;8.692;2024-03-07T18:05:44;5.70;99.90
15182;DHT22;7692;50.602;8.692;2024-03-07T18:08:18;5.70;99.90
15182;DHT22;7692;50.602;8.692;2024-03-07T18:11:06;5.70;99.90
15182;DHT22;7692;50.602;8.692;2024-03-07T18:13:43;5.70;99.90
15182;DHT22;7692;50.602;8.692;2024-03-07T18:16:11;5.70;99.90
15182;DHT22;7692;50.602;8.692;2024-03-07T18:18:42;5.70;99.90
15182;DHT22;7692;50.602;8.692;2024-03-07T18:21:13;5.70;99.90
15182;DHT22;7692;50.602;8.692;2024-03-07T18:23:42;5.70;99.90
15182;DHT22;7692;50.602;8.692;2024-03-07T18:26:10;5.70;99.90
15182;DHT22;7692;50.602;8.692;2024-03-07T18:28:40;5.70;99.90
15182;DHT22;7692;50.602;8.692;2024-03-07T18:31:14;5.70;99.90
15182;DHT22;7692;50.602;8.692;2024-03-07T18:33:44;5.80;99.90
15182;DHT22;7692;50.602;8.692;2024-03-07T18:36:13;5.70;99.90
15182;DHT22;7692;50.602;8.692;2024-03-07T18:38:41;5.70;99.90
15182;DHT22;7692;50.602;8.692;2024-03-07T18:41:10;5.70;99.90
15182;DHT22;7692;50.602;8.692;2024-03-07T18:43:39;5.80;99.90
15182;DHT22;7692;50.602;8.692;2024-03-07T18:46:08;5.80;99.90
15182;DHT22;7692;50.602;8.692;2024-03-07T18:48:38;5.80;99.90
15182;DHT22;7692;50.602;8.692;2024-03-07T18:51:09;5.80;99.90
15182;DHT22;7692;50.602;8.692;2024-03-07T18:53:37;5.80;99.90
15182;DHT22;7692;50.602;8.692;2024-03-07T18:56:06;5.70;99.90
15182;DHT22;7692;50.602;8.692;2024-03-07T18:58:37;5.70;99.90
15182;DHT22;7692;50.602;8.692;2024-03-07T19:01:06;5.70;99.90
15182;DHT22;7692;50.602;8.692;2024-03-07T19:03:35;5.70;99.90
15182;DHT22;7692;50.602;8.692;2024-03-07T19:06:04;5.70;99.90
15182;DHT22;7692;50.602;8.692;2024-03-07T19:08:36;5.70;99.90
15182;DHT22;7692;50.602;8.692;2024-03-07T19:11:04;5.70;99.90
15182;DHT22;7692;50.602;8.692;2024-03-07T19:13:33;5.60;99.90
15182;DHT22;7692;50.602;8.692;2024-03-07T19:16:05;5.70;99.90
15182;DHT22;7692;50.602;8.692;2024-03-07T19:18:35;5.60;99.90
15182;DHT22;7692;50.602;8.692;2024-03-07T19:21:05;5.60;99.90
15182;DHT22;7692;50.602;8.692;2024-03-07T19:23:38;5.60;99.90
15182;DHT22;7692;50.602;8.692;2024-03-07T19:26:11;5.60;99.90